Amarillo, Texas
Current Conditions -  °F | °C
As of 8:53 AM on Thursday 23 Oct 2014 (Local Time) from KAMA Reporting Station
Haze Haze  
Wind Chill: 16°   Ceiling: Unl
Heat Index: 16°   Visibility: 6mi
Dew Point: 14°   Wind: 7mph
Humidity: 90%   Direction: 200°SSW
Pressure: 30.12"   Gusts: NA
Location:  35.21°N, 101.83°W
Report Text: KAMA 231353Z 20006KT 6SM BR SCT010 16/14 A3012 RMK AO2 SLP168 T01560139
Loading
Personal Weather Stations






























Interactive Weather Map
Tropical Storm Tracking
New forecast layout! Learn more

10-Day Weather Forecast

Advertisements
Track Severe Weather on mobile